Terminal Aerodrome Forecast
Issued by NWS Blacksburg, VA

Home | Current Version | Previous Version | Text Only | Print | Product List | Glossary On
Versions: 1 2 3 4 5 6 7 8 9 10 11 12 13 14 15 16 17 18 19 20 21 22 23 24
000
FTUS41 KRNK 252320
TAFROA
TAF
KROA 252320Z 2600/2624 17006KT P6SM FEW050 FEW200
     FM261300 13004KT P6SM SCT035 OVC040
     FM262300 15008KT 6SM -SHRA OVC040=

USA.gov is the U.S. government's official web portal to all federal, state and local government web resources and services.